• Join FlightAware (Why Join?)
  • Login
  • US Flag 
10:19AM EDT


 

Airport Tracker/Info


-or-


 

Live Flight TrackerFlight Track Log ✈ C-GKZT ✈ 08-May-2013 ✈ KCPR - KAFW

Flight Track Log - Related Links

Times and Time Zones

All times are in EDT time to prevent confusion due to time zone crossing. See the C-GKZT flight status page for this flight to view local times or setup timezone preferences in your user account.

Time Position Orientation Groundspeed Altitude Reporting Facility
EDT Latitude Longitude Course Direction KTS MPH feet Rate Location/Type
09:09PM 42.8417 -106.2544 140° Southeast 239 275 11,600  Level Denver Center
09:10PM 42.7642 -106.1778 144° Southeast 285 328 13,500 1,860 Climbing Denver Center
09:11PM 42.6983 -106.1028 140° Southeast 308 354 15,500 1,920 Climbing Denver Center
09:12PM 42.4220 -105.9338 140° Southeast  Level Estimated
09:12PM 42.6139 -106.0183 144° Southeast 330 380 17,500  Level Denver Center
09:13PM 42.3407 -105.8462 143° Southeast  Level Estimated
09:13PM 42.5431 -105.9397 141° Southeast 340 391 18,800  Level Denver Center
09:14PM 42.4694 -105.8622 142° Southeast 348 400 20,200 1,440 Climbing Denver Center
09:15PM 42.3822 -105.7694 142° Southeast 356 410 21,800 1,500 Climbing Denver Center
09:16PM 42.3069 -105.6911 142° Southeast 357 411 23,300 1,500 Climbing Denver Center
09:17PM 42.2186 -105.5956 141° Southeast 364 419 24,900 1,500 Climbing Denver Center
09:18PM 42.1428 -105.5169 142° Southeast 361 415 26,400 1,500 Climbing Denver Center
09:19PM 42.0561 -105.4247 142° Southeast 358 412 28,000 1,320 Climbing Denver Center
09:20PM 41.9817 -105.3464 142° Southeast 356 410 29,200 1,200 Climbing Denver Center
09:21PM 41.8922 -105.2547 143° Southeast 362 417 30,500 1,140 Climbing Denver Center
09:22PM 41.8175 -105.1742 141° Southeast 362 417 31,600 1,080 Climbing Denver Center
09:23PM 41.7283 -105.0856 143° Southeast 359 413 32,800 1,020 Climbing Denver Center
09:24PM 41.6544 -105.0047 141° Southeast 358 412 33,800 840 Climbing Denver Center
09:25PM 41.5914 -104.9433 144° Southeast 354 407 34,600 1,020 Climbing Denver Center
09:26PM 41.4933 -104.8394 142° Southeast 352 405 35,900 1,080 Climbing Denver Center
09:27PM 41.4183 -104.7669 144° Southeast 349 402 36,900 960 Climbing Denver Center
09:28PM 41.3367 -104.6806 142° Southeast 338 389 38,000 960 Climbing Denver Center
09:29PM 41.2656 -104.6111 144° Southeast 333 383 38,900 480 Climbing Denver Center
09:30PM 41.1831 -104.5264 142° Southeast 336 387 39,000  Climbing Denver Center
09:31PM 41.1064 -104.4489 143° Southeast 357 411 39,000  Level Denver Center
09:32PM 41.0128 -104.3547 143° Southeast 376 433 39,000  Level Denver Center
09:33PM 40.9317 -104.2719 142° Southeast 384 442 39,000  Level Denver Center
09:34PM 40.8322 -104.1736 143° Southeast 398 458 39,000  Level Denver Center
09:35PM 40.7483 -104.0878 142° Southeast 399 459 39,000  Level Denver Center
09:36PM 40.6600 -104.0031 144° Southeast 408 470 39,000  Level Denver Center
09:37PM 40.5600 -103.9025 143° Southeast 407 468 39,000  Level Denver Center
09:38PM 40.4711 -103.8167 144° Southeast 413 475 39,000  Level Denver Center
09:39PM 40.3692 -103.7153 143° Southeast 413 475 39,000  Level Denver Center
09:40PM 40.2819 -103.6300 143° Southeast 410 472 39,000  Level Denver Center
09:42PM 40.1814 -103.5317 143° Southeast 407 468 39,000  Level Denver Center
09:43PM 40.0861 -103.4369 143° Southeast 408 470 39,000  Level Denver Center
09:44PM 39.9989 -103.3550 144° Southeast 406 467 39,000  Level Denver Center
09:45PM 39.9136 -103.2714 143° Southeast 403 464 39,000  Level Denver Center
09:46PM 39.8108 -103.1756 144° Southeast 405 466 39,000  Level Denver Center
09:47PM 39.7256 -103.0908 143° Southeast 405 466 39,000  Level Denver Center
09:48PM 39.6231 -102.9953 144° Southeast 405 466 39,000  Level Denver Center
09:49PM 39.5372 -102.9100 143° Southeast 405 466 39,000  Level Denver Center
09:50PM 39.4344 -102.8158 145° Southeast 406 467 39,000  Level Denver Center
09:51PM 39.3486 -102.7325 143° Southeast 404 465 39,000  Level Denver Center
09:52PM 39.2483 -102.6406 145° Southeast 405 466 39,000  Level Denver Center
09:53PM 39.1617 -102.5556 143° Southeast 408 470 39,000  Level Denver Center
09:54PM 39.0589 -102.4619 145° Southeast 406 467 39,000  Level Denver Center
09:55PM 38.9575 -102.3675 144° Southeast 403 464 39,000  Level Denver Center
09:56PM 38.8578 -102.2722 143° Southeast 402 463 39,000  Level Denver Center
09:57PM 38.7697 -102.1947 146° Southeast 400 460 39,000  Level Denver Center
09:58PM 38.6703 -102.0992 143° Southeast 400 460 39,000  Level Denver Center
09:59PM 38.5825 -102.0222 146° Southeast 400 460 39,000  Level Denver Center
10:00PM 38.4986 -101.9408 143° Southeast 397 457 39,000  Level Denver Center
10:01PM 38.3978 -101.8533 146° Southeast 394 453 39,000  Level Denver Center
10:02PM 38.3139 -101.7742 143° Southeast 392 451 39,000  Level Denver Center
10:03PM 38.2414 -101.7106 145° Southeast 395 455 39,000  Level Denver Center
10:04PM 38.1275 -101.6056 144° Southeast 397 457 39,000  Level Denver Center
10:05PM 38.0283 -101.5169 145° Southeast 392 451 39,000  Level Denver Center
10:06PM 37.9419 -101.4386 144° Southeast 396 456 39,000  Level Denver Center
10:07PM 37.8564 -101.3619 145° Southeast 396 456 39,000  Level Denver Center
10:08PM 37.7997 -101.3092 144° Southeast 396 456 39,000  Level Kansas City Center
10:09PM 37.7128 -101.2364 146° Southeast 395 455 39,000  Level Kansas City Center
10:10PM 37.6139 -101.1447 144° Southeast 398 458 39,000  Level Kansas City Center
10:11PM 37.5253 -101.0711 147° Southeast 403 464 39,000  Level Kansas City Center
10:12PM 37.4258 -100.9761 143° Southeast 405 466 39,000  Level Kansas City Center
10:13PM 37.3369 -100.9011 146° Southeast 404 465 39,000  Level Kansas City Center
10:14PM 37.2497 -100.8208 144° Southeast 406 467 39,000  Level Kansas City Center
10:15PM 37.1456 -100.7314 146° Southeast 408 470 39,000  Level Kansas City Center
10:16PM 37.0581 -100.6539 145° Southeast 404 465 39,000  Level Kansas City Center
10:17PM 36.9553 -100.5647 145° Southeast 403 464 39,000  Level Kansas City Center
10:18PM 36.8669 -100.4886 145° Southeast 402 463 39,000  Level Kansas City Center
10:19PM 36.7786 -100.4119 145° Southeast 404 465 39,000  Level Kansas City Center
10:20PM 36.6764 -100.3253 146° Southeast 404 465 39,000  Level Kansas City Center
10:21PM 36.5844 -100.2436 144° Southeast 405 466 39,000  Level Kansas City Center
10:22PM 36.4900 -100.1658 146° Southeast 407 468 39,000  Level Kansas City Center
10:23PM 36.3975 -100.0831 144° Southeast 409 471 39,000  Level Kansas City Center
10:24PM 36.3019 -100.0047 147° Southeast 410 472 39,000  Level Kansas City Center
10:25PM 36.2081 -99.9219 145° Southeast 413 475 39,000  Level Kansas City Center
10:26PM 36.1125 -99.8439 147° Southeast 413 475 39,000  Level Kansas City Center
10:27PM 36.0181 -99.7614 145° Southeast 416 479 39,000  Level Kansas City Center
10:28PM 35.9214 -99.6839 147° Southeast 416 479 39,000  Level Kansas City Center
10:29PM 35.8275 -99.6011 144° Southeast 416 479 39,000  Level Kansas City Center
10:30PM 35.7122 -99.5075 147° Southeast 417 480 39,000  Level Kansas City Center
10:31PM 35.6142 -99.4300 147° Southeast 420 483 39,000  Level Kansas City Center
10:32PM 35.5531 -99.3908 152° Southeast 417 480 39,000  Level Fort Worth Center
10:33PM 35.4544 -99.3122 147° Southeast 417 480 39,000  Level Fort Worth Center
10:34PM 35.3531 -99.2411 150° Southeast 417 480 39,000  Level Fort Worth Center
10:35PM 35.2564 -99.1653 147° Southeast 422 486 39,000  Level Fort Worth Center
10:36PM 35.1572 -99.0919 149° Southeast 422 486 39,000 -300 Level Fort Worth Center
10:37PM 35.0622 -99.0217 149° Southeast 422 486 38,500 -1,080 Descending Fort Worth Center
10:38PM 34.9650 -98.9514 149° Southeast 410 472 36,900 -1,680 Descending Fort Worth Center
10:39PM 34.8700 -98.8814 149° Southeast 410 472 35,200 -1,500 Descending Fort Worth Center
10:40PM 34.7725 -98.8114 149° Southeast 405 466 33,900 -1,380 Descending Fort Worth Center
10:41PM 34.6775 -98.7392 148° Southeast 400 460 32,500 -1,440 Descending Fort Worth Center
10:42PM 34.5822 -98.6772 152° Southeast 395 455 31,100 -1,500 Descending Fort Worth Center
10:43PM 34.4889 -98.6103 149° Southeast 390 449 29,500 -1,620 Descending Fort Worth Center
10:44PM 34.3956 -98.5436 149° Southeast 395 455 27,900 -1,800 Descending Fort Worth Center
10:45PM 34.2961 -98.4719 149° Southeast 401 461 26,000 -1,920 Descending Fort Worth Center
10:46PM 34.1944 -98.3978 149° Southeast 407 468 24,100 -1,740 Descending Fort Worth Center
10:47PM 34.1053 -98.3292 147° Southeast 401 461 22,600 -1,620 Descending Fort Worth Center
10:48PM 34.0139 -98.2631 149° Southeast 391 450 20,900 -1,620 Descending Fort Worth Center
10:49PM 33.9225 -98.1994 150° Southeast 391 450 19,400 -1,500 Descending Fort Worth Center
10:50PM 33.8353 -98.1361 149° Southeast 379 436 18,000 -1,560 Descending Fort Worth Center
10:51PM 33.7564 -98.0806 150° Southeast 374 430 16,300 -1,560 Descending Fort Worth Center
10:52PM 33.6689 -98.0175 149° Southeast 374 430 14,900 -1,560 Descending Fort Worth Center
10:53PM 33.5794 -97.9569 151° Southeast 349 402 13,200 -1,500 Descending Fort Worth Center
10:54PM 33.5025 -97.8992 148° Southeast 332 382 11,900 -1,320 Descending Fort Worth Center
10:55PM 33.4378 -97.8567 151° Southeast 307 353 10,600 -1,320 Descending Fort Worth Center
10:56PM 33.3608 -97.7989 148° Southeast 294 338 9,300 -1,200 Descending Fort Worth Center
10:57PM 33.2983 -97.7589 152° Southeast 287 330 8,200 -780 Descending Fort Worth Center
10:58PM 33.2506 -97.6842 127° Southeast 282 325 7,800 -1,020 Descending Fort Worth Center
10:59PM 33.2319 -97.5947 104° East 265 305 6,200 -1,380 Descending Fort Worth Center
11:00PM 33.2194 -97.5128 100° East 259 298 5,100 -1,320 Descending Fort Worth Center
11:01PM 33.1861 -97.4531 124° Southeast 218 251 3,600 -1,020 Descending Fort Worth Center
11:02PM 33.1528 -97.4036 129° Southeast 205 236 3,100 -600 Descending Fort Worth Center
11:03PM 33.1319 -97.3614 120° Southeast 155 178 2,500 -300 Descending Fort Worth Center
11:04PM 33.1047 -97.3414 148° Southeast 121 139 2,500 -180 Level Fort Worth Center
11:05PM 33.0733 -97.3367 173° South 106 122 2,200 -480 Descending Fort Worth Center
11:06PM 33.0400 -97.3292 169° South 111 128 1,600 -600 Descending Fort Worth Center
11:07PM 33.0128 -97.3267 176° South 117 135 1,100 -420 Descending Fort Worth Center
11:08PM 32.9794 -97.3194 170° South 112 129 800 -300 Descending Fort Worth Center
11:11PM 32.9876 -97.3188 North  Level Estimated
11:18PM 32.9876 -97.3188 107° East  Level Estimated
11:19PM 32.9876 -97.3188 107° East  Level Estimated
11:20PM 32.9876 -97.3188 107° East  Level Estimated
11:21PM 32.9876 -97.3188 107° East  Level Estimated
11:22PM 32.9876 -97.3188 107° East  Level Estimated